Hobart, WA (98025)

9:26 PM PDT on October 19, 2014 (GMT -0700)
W7GPL | Change Station
CLOSE
Current Station
Personal Weather Station
Location: Maple Valley, WA
Elevation: 630 ft
Nearby Weather Stations

Elev 630 ft 47.40 °N, 122.01 °W | Updated 5 seconds ago

Partly Cloudy
Partly Cloudy
55.9 °F
Feels Like 55.9 °F
N
0.0
Wind Variable Wind from NW
Gusts 2.0 mph

Today
High -- | Low -- °F
--% Chance of Precip.
Yesterday
High -- | Low -- °F
Precip. -- in
7:32 AM 6:12 PM
Waning Crescent, 13% visible
Pressure 29.69 in
Visibility -9999.0 miles
Clouds Clear
Dew Point 54 °F
Humidity 95%
Rainfall 0.00 in
Snow Depth Not available.
UV 0 out of 12
Pollen 1.30 out of 12
PM2.5 Good
Flu Activity Sporadic
METAR KRNT 200253Z VRB05KT CLR 19/12 A2968 RMK AO2 SLP054 T01940117 53000 $

More Conditions Fewer Conditions

Pressure 29.69 in
Visibility -9999.0 miles
Clouds Clear
Dew Point 54 °F
Humidity 95%
Rainfall 0.00 in
Snow Depth Not available.
UV 0 out of 12
Pollen 1.30 out of 12
PM2.5 Good
Flu Activity Sporadic
METAR KRNT 200253Z VRB05KT CLR 19/12 A2968 RMK AO2 SLP054 T01940117 53000 $

More Conditions Fewer Conditions

10-Day Weather Forecast

Almanac

Astronomy

Oct. 19, 2014 Rise Set
Actual Time 7:32 AM PDT 6:12 PM PDT
Civil Twilight 7:01 AM PDT 6:43 PM PDT
Nautical Twilight 6:25 AM PDT 7:19 PM PDT
Astronomical Twilight 5:49 AM PDT 7:54 PM PDT
Moon 3:14 AM PDT (10/19) 4:20 PM PDT (10/19)
Length of Visible Light 11h 42m
Length of Day
10h 40m
Waning Crescent, 13% of the Moon is Illuminated
Oct 20
Waning Crescent
Oct 23
New
Oct 30
First Quarter
Nov 6
Full
Nov 14
Last Quarter

Yesterday's Extremes

State Highs State Lows

Community

WunderPhotos

Upload Photos

1,763,294 photos uploaded!

Nearby

Air Quality

  Air Quality AQ Index Pollutant
Yesterday Good
PM2.5
Yesterday Good
OZONE
Current Good
PM2.5
Sunday Good
PM2.5
Monday Good
PM2.5
Tuesday Good
PM2.5

Snow Depth

Station Depth Elevation
Meadows Pass 0 in 3500 ft
Alpine Meadows 0 in 3500 ft
Burnt Mountain 0 in 4200 ft
Stevens Pass 0 in 4070 ft
Blewett Pass 0 in 4270 ft

Earthquake Activity

City Distance Mag. Time & Date
No recent earthquake activity has been reported nearby.
Minimum magnitude displayed is 2.5.

Coastal Water Temperatures

Place Temperature
Port Townsend, WA 53.1 °F
Seattle, WA 55.0 °F
Friday Harbor, WA 51.1 °F
Tacoma, WA 55.0 °F

Nearby Weather Stations